Sumter, SC

6:47 PM EDT on September 18, 2014 (GMT -0400)
Shaw Air Force Base | Change Station
CLOSE
Current Station
Airport
Location: Shaw AFB,
Elevation: 243 ft
Nearby Weather Stations

Elev 243 ft 33.97 °N, 80.47 °W | Updated 49 minutes ago

Clear
Clear
83 °F
Feels Like 85 °F
N
8
Wind Variable Wind from East

Today
High -- | Low -- °F
--% Chance of Precip.
Yesterday
High -- | Low -- °F
Precip. -- in
7:06 AM 7:23 PM
Waning Crescent, 24% visible
Pressure 29.93 in
Visibility 10.0 miles
Clouds Few 4000 ft
Heat Index 85 °F
Dew Point 65 °F
Humidity 54%
Rainfall 0.00 in
Snow Depth Not available.
UV 1 out of 12
Pollen 8.00 out of 12
Ozone Good
Flu Activity Not available.
METAR KSSC 182158Z AUTO 10007KT 10SM FEW040 28/18 A2993 RMK AO2 SLP135 T02830182 $

More Conditions Fewer Conditions

Pressure 29.93 in
Visibility 10.0 miles
Clouds Few 4000 ft
Heat Index 85 °F
Dew Point 65 °F
Humidity 54%
Rainfall 0.00 in
Snow Depth Not available.
UV 1 out of 12
Pollen 8.00 out of 12
Ozone Good
Flu Activity Not available.
METAR KSSC 182158Z AUTO 10007KT 10SM FEW040 28/18 A2993 RMK AO2 SLP135 T02830182 $

More Conditions Fewer Conditions

10-Day Weather Forecast

Almanac

Astronomy

Sep. 18, 2014 Rise Set
Actual Time 7:06 AM EDT 7:23 PM EDT
Civil Twilight 6:41 AM EDT 7:48 PM EDT
Nautical Twilight 6:12 AM EDT 8:17 PM EDT
Astronomical Twilight 5:42 AM EDT 8:47 PM EDT
Moon 2:07 AM EDT 4:03 PM EDT
Length of Visible Light 13h 06m
Length of Day
12h 17m
Tomorrow will be 2m 5s shorter.
Waning Crescent, 24% of the Moon is Illuminated
Today
Waning Crescent
Sep 24
New
Oct 1
First Quarter
Oct 8
Full
Oct 15
Last Quarter

Today's Extremes

State Highs State Lows

Community

WunderPhotos

Upload Photos

1,754,471 photos uploaded!

WunderBlogs® & News

Nearby

Air Quality

  Air Quality AQ Index Pollutant
Yesterday Good
OZONE
Current Good
OZONE
Thursday Good
OZONE
Friday Good
OZONE

Snow Depth

Station Depth Elevation
No new snow has been reported.

Earthquake Activity

City Distance Mag. Time & Date
No recent earthquake activity has been reported nearby.
Minimum magnitude displayed is 2.5.

Coastal Water Temperatures

Place Temperature
No Stations Reporting

Nearby Weather Stations